Latest Coastal Weather Observations for Friendly Beaches

IDT60701

Issued at 4:52 pm EDT Tuesday 9 February 2016 (issued every 10 minutes, with the page automatically refreshed every 10 minutes)

About coastal observations | Map of coastal stations | Coastal observations for TAS | Marine services | Other Formats
Station Details ID: 092114 Name: FRIENDLY BEACHES Lat: -42.00 Lon: 148.28 Height: 55.0 m
Data from the previous 72 hours. | See also: Recent months at Friendly Beaches
Date/Time
EDT
Temp

°C
Wind Pressure Rain
since 9am
mm
Weather Cloud Vis
km
Sea
Height
m
Swell
Dir
 
Speed
knots
Gust
knots
hPa Trend Height
m
Period
s
Dir
09/04:38pm 24.1 N 15 27 1014.8 - 0.0 - - - - - - -
09/04:30pm 24.5 NNE 16 24 1015.0 - 0.0 - - - - - - -
09/04:16pm 23.6 NNE 15 25 1015.3 - 0.0 - - - - - - -
09/04:00pm 24.0 N 16 23 1015.6 - 0.0 - - - - - - -
09/03:35pm 22.9 NNE 16 29 1016.1 - 0.0 - - - - - - -
09/03:30pm 24.5 NNE 16 25 1016.3 - 0.0 - - - - - - -
09/03:10pm 23.6 NNE 16 26 1016.6 - 0.0 - - - - - - -
09/03:00pm 24.7 NNE 18 26 1016.9 - 0.0 - - - - - - -
09/02:30pm 23.6 NNE 17 25 1017.5 - 0.0 - - - - - - -
09/02:00pm 24.1 NNE 16 23 1018.1 - 0.0 - - - - - - -
09/01:30pm 23.8 NNE 15 25 1018.6 - 0.0 - - - - - - -
09/01:00pm 23.4 NE 14 21 1019.2 - 0.0 - - - - - - -
09/12:30pm 22.0 NE 10 16 1019.8 - 0.0 - - - - - - -
09/12:00pm 21.9 NE 8 14 1020.4 - 0.0 - - - - - - -
09/11:30am 21.2 ENE 8 12 1020.8 - 0.0 - - - - - - -
09/11:00am 20.7 ENE 6 9 1021.0 - 0.0 - - - - - - -
09/10:30am 21.8 E 5 7 1021.1 - 0.0 - - - - - - -
09/10:00am 19.9 E 3 4 1021.2 - 0.0 - - - - - - -
09/09:30am 19.2 CALM 0 0 1021.6 - 0.0 - - - - - - -
09/09:00am 18.4 SE 1 2 1021.7 - 0.4 - - - - - - -
09/08:30am 18.1 CALM 0 0 1021.6 - 0.4 - - - - - - -
09/08:00am 17.3 W 2 2 1021.4 - 0.4 - - - - - - -
09/07:30am 16.8 W 2 3 1021.3 - 0.4 - - - - - - -
09/07:00am 16.6 WSW 3 4 1021.2 - 0.4 - - - - - - -
09/06:30am 16.4 WSW 3 4 1021.0 - 0.4 - - - - - - -
09/06:00am 16.1 W 3 3 1020.8 - 0.4 - - - - - - -
09/05:30am 16.2 WSW 3 5 1020.6 - 0.4 - - - - - - -
09/05:00am 16.2 W 3 5 1020.5 - 0.4 - - - - - - -
09/04:30am 16.6 W 3 3 1020.4 - 0.4 - - - - - - -
09/04:00am 16.7 WSW 1 2 1020.4 - 0.4 - - - - - - -
09/03:30am 16.8 W 1 1 1020.3 - 0.4 - - - - - - -
09/03:00am 17.0 W 3 4 1020.4 - 0.4 Rain - - - - - -
09/02:30am 18.1 WNW 3 6 1020.4 - 0.0 - - - - - - -
09/02:00am 18.1 NNW 4 6 1020.4 - 0.0 - - - - - - -
09/01:30am 18.2 N 2 4 1020.5 - 0.0 - - - - - - -
09/01:00am 17.9 N 3 5 1020.6 - 0.0 - - - - - - -
09/12:30am 18.1 N 1 2 1020.7 - 0.0 - - - - - - -
09/12:00am 18.4 NNE 1 3 1020.7 - 0.0 - - - - - - -
 
Date/Time
EDT
Temp

°C
Wind Pressure Rain
since 9am
mm
Weather Cloud Vis
km
Sea
Height
m
Swell
Dir
 
Speed
knots
Gust
knots
hPa Trend Height
m
Period
s
Dir
08/11:30pm 18.6 ENE 4 5 1020.8 - 0.0 - - - - - - -
08/11:00pm 18.7 NE 3 5 1020.7 - 0.0 - - - - - - -
08/10:30pm 19.0 ENE 4 6 1020.8 - 0.0 - - - - - - -
08/10:00pm 19.0 E 5 7 1020.8 - 0.0 - - - - - - -
08/09:30pm 19.0 ESE 6 8 1020.5 - 0.0 - - - - - - -
08/09:00pm 18.8 ESE 7 10 1019.9 - 0.0 - - - - - - -
08/08:30pm 18.8 ESE 8 11 1019.6 - 0.0 - - - - - - -
08/08:00pm 19.4 ESE 8 10 1019.5 - 0.0 - - - - - - -
08/07:30pm 19.6 SE 10 14 1018.9 - 0.0 - - - - - - -
08/07:00pm 20.0 SE 9 12 1018.7 - 0.0 - - - - - - -
08/06:30pm 20.9 ESE 9 12 1018.4 - 0.0 - - - - - - -
08/06:00pm 22.9 ESE 9 11 1018.1 - 0.0 - - - - - - -
08/05:30pm 22.8 ESE 9 12 1018.0 - 0.0 - - - - - - -
08/05:00pm 23.5 ESE 9 12 1018.0 - 0.0 - - - - - - -
08/04:30pm 24.9 E 8 11 1017.8 - 0.0 - - - - - - -
08/04:00pm 24.3 E 8 11 1017.6 - 0.0 - - - - - - -
08/03:30pm 24.5 E 9 11 1017.6 - 0.0 - - - - - - -
08/03:00pm 25.0 E 7 11 1017.5 - 0.0 - - - - - - -
08/02:30pm 25.1 ESE 9 12 1017.6 - 0.0 - - - - - - -
08/02:00pm 25.2 ESE 10 12 1017.6 - 0.0 - - - - - - -
08/01:30pm 25.9 SE 11 14 1017.5 - 0.0 - - - - - - -
08/01:00pm 26.2 SE 11 15 1017.3 - 0.0 - - - - - - -
08/12:30pm 25.5 SE 12 15 1017.3 - 0.0 - - - - - - -
08/12:00pm 25.8 SSE 5 8 1017.3 - 0.0 - - - - - - -
08/11:30am 25.2 SW 5 10 1017.4 - 0.0 - - - - - - -
08/11:00am 24.7 SW 7 13 1017.6 - 0.0 - - - - - - -
08/10:30am 23.9 SSW 8 16 1017.9 - 0.0 - - - - - - -
08/10:00am 23.6 SW 7 11 1017.7 - 0.0 - - - - - - -
08/09:30am 22.4 SSW 6 10 1017.8 - 0.0 - - - - - - -
08/09:00am 21.5 WSW 5 7 1017.9 - 0.0 - - - - - - -
08/08:30am 20.8 W 5 8 1017.7 - 0.0 - - - - - - -
08/08:00am 19.3 W 5 8 1017.5 - 0.0 - - - - - - -
08/07:30am 17.7 W 4 6 1017.4 - 0.0 - - - - - - -
08/07:00am 16.5 WNW 4 6 1017.1 - 0.0 - - - - - - -
08/06:30am 16.4 W 4 5 1016.9 - 0.0 - - - - - - -
08/06:00am 16.8 WNW 3 4 1016.7 - 0.0 - - - - - - -
08/05:30am 17.5 WSW 5 7 1016.6 - 0.0 - - - - - - -
08/05:00am 17.2 WNW 5 7 1016.3 - 0.0 - - - - - - -
08/04:30am 17.6 WNW 4 5 1016.3 - 0.0 - - - - - - -
08/04:00am 17.6 WNW 3 4 1016.6 - 0.0 - - - - - - -
08/03:30am 17.2 WNW 4 5 1016.6 - 0.0 - - - - - - -
08/03:00am 17.1 WNW 5 6 1016.8 - 0.0 - - - - - - -
08/02:30am 17.3 WNW 5 7 1016.8 - 0.0 - - - - - - -
08/02:00am 17.3 WNW 5 7 1016.9 - 0.0 - - - - - - -
08/01:30am 17.2 WNW 5 7 1016.9 - 0.0 - - - - - - -
08/01:00am 17.3 W 4 6 1017.0 - 0.0 - - - - - - -
08/12:30am 17.2 WNW 4 6 1017.1 - 0.0 - - - - - - -
08/12:00am 17.8 CALM 0 0 1017.2 - 0.0 - - - - - - -
 
Date/Time
EDT
Temp

°C
Wind Pressure Rain
since 9am
mm
Weather Cloud Vis
km
Sea
Height
m
Swell
Dir
 
Speed
knots
Gust
knots
hPa Trend Height
m
Period
s
Dir
07/11:30pm 18.3 NW 1 3 1017.2 - 0.0 - - - - - - -
07/11:00pm 18.3 NNE 4 7 1017.1 - 0.0 - - - - - - -
07/10:30pm 18.4 NNE 4 6 1017.4 - 0.0 - - - - - - -
07/10:00pm 18.9 NNE 5 7 1017.5 - 0.0 - - - - - - -
07/09:30pm 19.3 N 7 11 1017.3 - 0.0 - - - - - - -
07/09:00pm 19.3 NNE 4 8 1017.0 - 0.0 - - - - - - -
07/08:30pm 19.7 N 6 11 1016.8 - 0.0 - - - - - - -
07/08:00pm 20.5 NNE 5 7 1016.7 - 0.0 - - - - - - -
07/07:30pm 21.4 NNE 5 10 1016.3 - 0.0 - - - - - - -
07/07:00pm 22.3 NNE 7 10 1016.4 - 0.0 - - - - - - -
07/06:30pm 23.1 NNE 9 13 1016.3 - 0.0 - - - - - - -
07/06:00pm 24.4 NNE 7 12 1016.5 - 0.0 - - - - - - -
07/05:30pm 24.6 NNE 10 13 1016.4 - 0.0 - - - - - - -
07/05:00pm 25.0 NNE 10 15 1016.3 - 0.0 - - - - - - -
07/04:30pm 25.3 NNE 10 15 1016.5 - 0.0 - - - - - - -
07/04:00pm 25.7 NNE 9 15 1016.5 - 0.0 - - - - - - -
07/03:30pm 26.4 NNE 9 14 1016.5 - 0.0 - - - - - - -
07/03:00pm 25.9 NNE 9 14 1016.7 - 0.0 - - - - - - -
07/02:30pm 26.5 NNE 11 16 1016.7 - 0.0 - - - - - - -
07/02:00pm 25.9 NNE 12 17 1016.8 - 0.0 - - - - - - -
07/01:30pm 26.4 NNE 10 16 1017.0 - 0.0 - - - - - - -
07/01:00pm 25.8 NE 11 15 1017.2 - 0.0 - - - - - - -
07/12:30pm 26.2 NE 9 14 1017.3 - 0.0 - - - - - - -
07/12:00pm 25.6 NNE 10 15 1017.4 - 0.0 - - - - - - -
07/11:30am 24.4 NNE 11 15 1017.7 - 0.0 - - - - - - -
07/11:00am 24.3 NE 10 16 1017.7 - 0.0 - - - - - - -
07/10:30am 24.0 NE 8 12 1017.9 - 0.0 - - - - - - -
07/10:00am 23.2 ENE 7 11 1018.0 - 0.0 - - - - - - -
07/09:30am 22.1 NNW 3 7 1018.1 - 0.0 - - - - - - -
07/09:00am 20.9 NW 5 9 1018.4 - 0.0 - - - - - - -
07/08:30am 19.2 CALM 0 0 1018.4 - 0.0 - - - - - - -
07/08:00am 18.9 CALM 0 0 1018.2 - 0.0 - - - - - - -
07/07:30am 18.4 CALM 0 2 1018.1 - 0.0 - - - - - - -
07/07:00am 18.1 NNW 2 5 1017.7 - 0.0 - - - - - - -
07/06:30am 17.9 NNW 5 7 1017.4 - 0.0 - - - - - - -
07/06:00am 18.1 N 3 6 1017.2 - 0.0 - - - - - - -
07/05:30am 18.2 NNE 2 5 1016.9 - 0.0 - - - - - - -
07/05:00am 18.3 NNE 4 7 1016.7 - 0.0 - - - - - - -
07/04:30am 18.7 N 5 6 1016.9 - 0.0 - - - - - - -
07/04:00am 18.7 N 4 6 1017.1 - 0.0 - - - - - - -
07/03:30am 18.5 N 3 4 1017.1 - 0.0 - - - - - - -
07/03:00am 18.4 NNW 4 6 1017.2 - 0.0 - - - - - - -
07/02:30am 18.4 NNW 4 7 1017.1 - 0.0 - - - - - - -
07/02:00am 18.4 NNW 7 11 1017.2 - 0.0 - - - - - - -
07/01:30am 18.3 N 7 12 1017.2 - 0.0 - - - - - - -
07/01:00am 18.3 N 9 14 1017.3 - 0.0 - - - - - - -
07/12:30am 18.3 N 8 13 1017.5 - 0.0 - - - - - - -
07/12:00am 18.3 N 7 12 1017.6 - 0.0 - - - - - - -
 
Date/Time
EDT
Temp

°C
Wind Pressure Rain
since 9am
mm
Weather Cloud Vis
km
Sea
Height
m
Swell
Dir
 
Speed
knots
Gust
knots
hPa Trend Height
m
Period
s
Dir
06/11:30pm 18.4 N 9 13 1017.6 - 0.0 - - - - - - -
06/11:00pm 18.5 N 9 13 1017.9 - 0.0 - - - - - - -
06/10:30pm 18.7 N 10 17 1018.1 - 0.0 - - - - - - -
06/10:00pm 18.8 N 10 16 1018.1 - 0.0 - - - - - - -
06/09:30pm 18.8 NNE 11 17 1017.7 - 0.0 - - - - - - -
06/09:00pm 18.8 NNE 10 17 1017.6 - 0.0 - - - - - - -
06/08:30pm 19.1 NNE 10 15 1017.7 - 0.0 - - - - - - -
06/08:00pm 19.5 NNE 12 20 1017.5 - 0.0 - - - - - - -
06/07:30pm 20.3 NNE 13 22 1017.6 - 0.0 - - - - - - -
06/07:00pm 21.1 NNE 12 20 1017.6 - 0.0 - - - - - - -
06/06:30pm 21.8 NNE 13 21 1017.5 - 0.0 - - - - - - -
06/06:00pm 22.4 NNE 14 20 1017.5 - 0.0 - - - - - - -
06/05:30pm 23.2 NNE 14 21 1017.7 - 0.0 - - - - - - -
06/05:00pm 23.6 NNE 13 21 1017.9 - 0.0 - - - - - - -

Other Formats:

Comma delimited format used in spreadsheet applications
http://www.bom.gov.au/fwo/IDT60701/IDT60701.94987.axf

JavaScript Object Notation format (JSON) in row-major order
http://www.bom.gov.au/fwo/IDT60701/IDT60701.94987.json